Famagusta, Cyprus
Current Conditions -  °F | °C
As of 2:20 PM on Monday 20 Oct 2014 (Local Time) from LCEN Reporting Station
Clear Clear  
Wind Chill: 73°   Ceiling: Unl
Heat Index: 73°   Visibility: 6mi
Dew Point: 27°   Wind: 9mph
Humidity: 18%   Direction: 320°NW
Pressure: 29.88"   Gusts: NA
Location:  35.33°N, 34.07°E
Report Text: LCEN 201120Z 32008KT CAVOK 23/M03 Q1012 NOSIG
Loading
Personal Weather Stations






























Interactive Weather Map New forecast layout! Learn more

10-Day Weather Forecast

Advertisements
Track Severe Weather on mobile